createdAt,value
2022-11-04T00:02:13.890Z,8.91
2022-11-04T00:04:42.232Z,8.89
2022-11-04T00:07:30.430Z,8.87
2022-11-04T00:09:58.941Z,8.84
2022-11-04T00:12:27.242Z,8.81
2022-11-04T00:15:15.519Z,8.77
2022-11-04T00:17:43.814Z,8.73
2022-11-04T00:20:30.743Z,8.71
2022-11-04T00:23:17.383Z,8.69
2022-11-04T00:26:04.502Z,8.66
2022-11-04T00:28:44.655Z,8.63
2022-11-04T00:31:31.784Z,8.58
2022-11-04T00:34:00.104Z,8.54
2022-11-04T00:36:28.406Z,8.52
2022-11-04T00:38:56.831Z,8.51
2022-11-04T00:41:28.428Z,8.50
2022-11-04T00:44:02.632Z,8.49
2022-11-04T00:46:33.618Z,8.48
2022-11-04T00:49:02.043Z,8.48
2022-11-04T00:51:30.317Z,8.45
2022-11-04T00:53:59.578Z,8.46
2022-11-04T00:56:27.902Z,8.46
2022-11-04T00:58:56.299Z,8.44
2022-11-04T01:01:24.750Z,8.43
2022-11-04T01:03:54.485Z,8.43
2022-11-04T01:06:24.877Z,8.44
2022-11-04T01:09:02.124Z,8.48
2022-11-04T01:11:31.403Z,8.52
2022-11-04T01:14:00.525Z,8.53
2022-11-04T01:16:29.780Z,8.54
2022-11-04T01:18:58.963Z,8.57
2022-11-04T01:21:27.289Z,8.58
2022-11-04T01:23:55.532Z,8.59
2022-11-04T01:26:25.733Z,8.57
2022-11-04T01:28:55.798Z,8.55
2022-11-04T01:31:26.957Z,8.55
2022-11-04T01:33:56.097Z,8.55
2022-11-04T01:36:26.064Z,8.55
2022-11-04T01:38:57.745Z,8.55
2022-11-04T01:41:29.570Z,8.55
2022-11-04T01:44:21.992Z,8.57
2022-11-04T01:46:54.280Z,8.58
2022-11-04T01:49:22.960Z,8.58
2022-11-04T01:51:57.694Z,8.57
2022-11-04T01:54:26.674Z,8.56
2022-11-04T01:56:56.289Z,8.60
2022-11-04T01:59:33.167Z,8.62
2022-11-04T02:02:02.230Z,8.62
2022-11-04T02:04:31.867Z,8.59
2022-11-04T02:07:02.923Z,8.57
2022-11-04T02:09:32.817Z,8.56
2022-11-04T02:12:20.381Z,8.55
2022-11-04T02:14:50.669Z,8.56
2022-11-04T02:17:18.879Z,8.57
2022-11-04T02:20:18.869Z,8.56
2022-11-04T02:22:57.088Z,8.57
2022-11-04T02:26:06.964Z,8.58
2022-11-04T02:28:59.841Z,8.58
2022-11-04T02:31:58.964Z,8.58
2022-11-04T02:34:51.158Z,8.58
2022-11-04T02:37:46.444Z,8.59
2022-11-04T02:40:21.035Z,8.62
2022-11-04T02:42:59.164Z,8.66
2022-11-04T02:45:46.957Z,8.70
2022-11-04T02:48:27.664Z,8.72
2022-11-04T02:51:11.396Z,8.76
2022-11-04T02:53:56.966Z,8.82
2022-11-04T02:56:27.322Z,8.84
2022-11-04T02:59:01.308Z,8.84
2022-11-04T03:01:34.711Z,8.84
2022-11-04T03:04:21.538Z,8.84
2022-11-04T03:06:54.237Z,8.85
2022-11-04T03:09:23.791Z,8.85
2022-11-04T03:11:57.825Z,8.85
2022-11-04T03:14:36.321Z,8.87
2022-11-04T03:17:18.444Z,8.88
2022-11-04T03:20:00.391Z,8.90
2022-11-04T03:22:36.801Z,8.96
2022-11-04T03:25:08.651Z,8.99
2022-11-04T03:27:53.315Z,9.02
2022-11-04T03:30:23.955Z,9.05
2022-11-04T03:33:22.131Z,9.10
2022-11-04T03:35:50.500Z,9.15
2022-11-04T03:38:18.821Z,9.16
2022-11-04T03:40:47.096Z,9.15
2022-11-04T03:43:21.680Z,9.14
2022-11-04T03:45:51.805Z,9.12
2022-11-04T03:48:20.381Z,9.11
2022-11-04T03:50:49.819Z,9.11
2022-11-04T03:53:23.976Z,9.14
2022-11-04T03:56:00.562Z,9.14
2022-11-04T03:58:54.900Z,9.14
2022-11-04T04:01:48.489Z,9.14
2022-11-04T04:04:19.986Z,9.14
2022-11-04T04:06:53.553Z,9.15
2022-11-04T04:09:29.735Z,9.16
2022-11-04T04:12:20.823Z,9.18
2022-11-04T04:14:55.980Z,9.19
2022-11-04T04:17:31.591Z,9.19
2022-11-04T04:20:05.244Z,9.19
2022-11-04T04:22:51.209Z,9.17
2022-11-04T04:25:40.668Z,9.16
2022-11-04T04:28:13.053Z,9.16
2022-11-04T04:30:43.975Z,9.18
2022-11-04T04:33:18.399Z,9.19
2022-11-04T04:35:55.508Z,9.20
2022-11-04T04:38:48.216Z,9.19
2022-11-04T04:41:47.081Z,9.19
2022-11-04T04:44:47.576Z,9.19
2022-11-04T04:47:23.500Z,9.17
2022-11-04T04:50:00.511Z,9.15
2022-11-04T04:52:48.097Z,9.17
2022-11-04T04:55:16.722Z,9.18
2022-11-04T04:57:45.188Z,9.20
2022-11-04T05:00:17.784Z,9.21
2022-11-04T05:02:46.568Z,9.23
2022-11-04T05:07:48.557Z,9.27
2022-11-04T05:10:18.156Z,9.29
2022-11-04T05:13:04.950Z,9.31
2022-11-04T05:15:34.496Z,9.36
2022-11-04T05:18:03.712Z,9.40
2022-11-04T05:20:34.545Z,9.45
2022-11-04T05:23:03.032Z,9.48
2022-11-04T05:25:31.394Z,9.52
2022-11-04T05:28:02.021Z,9.57
2022-11-04T05:30:30.369Z,9.60
2022-11-04T05:33:01.801Z,9.64
2022-11-04T05:35:33.673Z,9.66
2022-11-04T05:38:01.991Z,9.69
2022-11-04T05:40:30.233Z,9.70
2022-11-04T05:42:59.965Z,9.73
2022-11-04T05:45:29.301Z,9.77
2022-11-04T05:48:05.449Z,9.82
2022-11-04T05:50:34.549Z,9.86
2022-11-04T05:53:02.824Z,9.89
2022-11-04T05:55:31.155Z,9.94
2022-11-04T05:57:59.492Z,9.97
2022-11-04T06:00:28.460Z,9.99
2022-11-04T06:02:59.657Z,10.02
2022-11-04T06:05:28.565Z,10.03
2022-11-04T06:07:57.578Z,10.04
2022-11-04T06:10:26.085Z,10.07
2022-11-04T06:12:54.404Z,10.11
2022-11-04T06:15:22.869Z,10.13
2022-11-04T06:17:51.155Z,10.17
2022-11-04T06:20:19.485Z,10.20
2022-11-04T06:22:47.705Z,10.23
2022-11-04T06:25:16.692Z,10.27
2022-11-04T06:27:44.987Z,10.32
2022-11-04T06:30:13.310Z,10.37
2022-11-04T06:32:41.879Z,10.41
2022-11-04T06:35:13.860Z,10.44
2022-11-04T06:37:42.112Z,10.48
2022-11-04T06:40:11.188Z,10.51
2022-11-04T06:42:39.429Z,10.53
2022-11-04T06:45:08.642Z,10.55
2022-11-04T06:47:37.011Z,10.58
2022-11-04T06:50:05.480Z,10.61
2022-11-04T06:52:36.874Z,10.64
2022-11-04T06:55:10.481Z,10.68
2022-11-04T06:57:38.799Z,10.73
2022-11-04T07:00:10.817Z,10.77
2022-11-04T07:02:39.533Z,10.81
2022-11-04T07:05:08.879Z,10.86
2022-11-04T07:07:37.383Z,10.92
2022-11-04T07:10:06.384Z,10.99
2022-11-04T07:12:34.645Z,11.04
2022-11-04T07:15:03.313Z,11.12
2022-11-04T07:17:31.692Z,11.18
2022-11-04T07:20:00.509Z,11.24
2022-11-04T07:22:28.848Z,11.31
2022-11-04T07:24:57.219Z,11.36
2022-11-04T07:27:25.562Z,11.41
2022-11-04T07:29:53.769Z,11.46
2022-11-04T07:32:22.062Z,11.50
2022-11-04T07:34:50.334Z,11.53
2022-11-04T07:37:18.673Z,11.55
2022-11-04T07:39:46.964Z,11.56
2022-11-04T07:42:15.288Z,11.57
2022-11-04T07:44:43.529Z,11.59
2022-11-04T07:47:11.881Z,11.63
2022-11-04T07:49:40.240Z,11.68
2022-11-04T07:52:08.681Z,11.74
2022-11-04T07:54:37.301Z,11.82
2022-11-04T07:57:05.544Z,11.92
2022-11-04T07:59:33.855Z,12.02
2022-11-04T08:02:02.422Z,12.12
2022-11-04T08:04:30.871Z,12.23
2022-11-04T08:06:59.192Z,12.33
2022-11-04T08:09:27.653Z,12.43
2022-11-04T08:11:55.993Z,12.54
2022-11-04T08:14:24.349Z,12.65
2022-11-04T08:16:52.730Z,12.73
2022-11-04T08:19:21.009Z,12.79
2022-11-04T08:21:49.305Z,12.87
2022-11-04T08:24:17.580Z,12.96
2022-11-04T08:26:46.490Z,13.03
2022-11-04T08:29:14.972Z,13.11
2022-11-04T08:31:43.740Z,13.18
2022-11-04T08:34:12.003Z,13.26
2022-11-04T08:36:41.059Z,13.32
2022-11-04T08:39:11.325Z,13.36
2022-11-04T08:41:43.200Z,13.44
2022-11-04T08:44:14.908Z,13.51
2022-11-04T08:46:45.260Z,13.60
2022-11-04T08:49:19.481Z,13.70
2022-11-04T08:51:56.457Z,13.84
2022-11-04T08:54:25.970Z,13.98
2022-11-04T08:56:54.261Z,14.16
2022-11-04T08:59:22.561Z,14.32
2022-11-04T09:01:50.944Z,14.46
2022-11-04T09:04:20.117Z,14.59
2022-11-04T09:06:50.439Z,14.74
2022-11-04T09:09:19.732Z,14.84
2022-11-04T09:11:49.334Z,14.94
2022-11-04T09:14:18.241Z,15.04
2022-11-04T09:16:46.575Z,15.13
2022-11-04T09:19:15.381Z,15.23
2022-11-04T09:21:43.835Z,15.33
2022-11-04T09:24:12.457Z,15.43
2022-11-04T09:26:40.839Z,15.56
2022-11-04T09:29:10.349Z,15.65
2022-11-04T09:31:39.328Z,15.76
2022-11-04T09:34:08.026Z,15.88
2022-11-04T09:36:36.449Z,16.01
2022-11-04T09:39:05.552Z,16.18
2022-11-04T09:41:58.129Z,16.28
2022-11-04T09:44:30.440Z,16.33
2022-11-04T09:47:02.063Z,16.38
2022-11-04T09:49:36.248Z,16.40
2022-11-04T09:52:14.191Z,16.48
2022-11-04T09:54:51.157Z,16.54
2022-11-04T09:57:20.481Z,16.57
2022-11-04T09:59:49.212Z,16.61
2022-11-04T10:02:28.252Z,16.72
2022-11-04T10:05:28.513Z,16.83
2022-11-04T10:08:02.941Z,16.94
2022-11-04T10:10:53.517Z,17.02
2022-11-04T10:13:34.107Z,17.12
2022-11-04T10:16:21.518Z,17.22
2022-11-04T10:18:58.996Z,17.32
2022-11-04T10:22:01.067Z,17.48
2022-11-04T10:24:43.575Z,17.68
2022-11-04T10:27:22.782Z,17.83
2022-11-04T10:30:00.116Z,17.92
2022-11-04T10:32:31.817Z,18.01
2022-11-04T10:35:31.137Z,18.09
2022-11-04T10:38:15.654Z,18.17
2022-11-04T10:40:48.506Z,18.27
2022-11-04T10:43:35.958Z,18.31
2022-11-04T10:46:30.487Z,18.36
2022-11-04T10:49:12.708Z,18.38
2022-11-04T10:51:40.991Z,18.40
2022-11-04T10:54:10.360Z,18.47
2022-11-04T10:56:43.496Z,18.50
2022-11-04T10:59:30.701Z,18.55
2022-11-04T11:02:01.989Z,18.48
2022-11-04T11:04:36.747Z,18.39
2022-11-04T11:07:06.909Z,18.29
2022-11-04T11:09:41.282Z,18.19
2022-11-04T11:12:44.048Z,18.10
2022-11-04T11:15:19.512Z,17.99
2022-11-04T11:17:48.149Z,17.97
2022-11-04T11:20:25.101Z,17.91
2022-11-04T11:22:55.875Z,17.79
2022-11-04T11:25:30.161Z,17.73
2022-11-04T11:28:04.969Z,17.65
2022-11-04T11:30:46.577Z,17.49
2022-11-04T11:33:20.389Z,17.37
2022-11-04T11:35:53.612Z,17.34
2022-11-04T11:38:24.891Z,17.32
2022-11-04T11:41:23.850Z,17.28
2022-11-04T11:43:56.103Z,17.18
2022-11-04T11:46:28.268Z,17.11
2022-11-04T11:49:02.906Z,17.07
2022-11-04T11:51:33.200Z,17.06
2022-11-04T11:54:19.785Z,17.03
2022-11-04T11:57:25.211Z,17.00
2022-11-04T12:02:59.627Z,16.86
2022-11-04T12:11:33.928Z,16.77
2022-11-04T12:14:10.317Z,16.70
2022-11-04T12:17:04.878Z,16.69
2022-11-04T12:19:46.989Z,16.68
2022-11-04T12:22:33.401Z,16.65
2022-11-04T12:25:08.345Z,16.57
2022-11-04T12:27:47.648Z,16.50
2022-11-04T12:30:28.115Z,16.50
2022-11-04T12:32:59.505Z,16.52
2022-11-04T12:35:43.544Z,16.56
2022-11-04T12:38:18.336Z,16.60
2022-11-04T12:41:18.717Z,16.66
2022-11-04T12:43:45.162Z,16.71
2022-11-04T12:46:27.964Z,16.75
2022-11-04T12:49:24.053Z,16.77
2022-11-04T12:52:07.156Z,16.78
2022-11-04T12:54:44.796Z,16.77
2022-11-04T12:57:24.110Z,16.72
2022-11-04T13:00:08.104Z,16.66
2022-11-04T13:03:02.456Z,16.58
2022-11-04T13:05:47.396Z,16.51
2022-11-04T13:08:28.703Z,16.39
2022-11-04T13:11:22.734Z,16.29
2022-11-04T13:14:01.856Z,16.19
2022-11-04T13:16:34.351Z,16.10
2022-11-04T13:19:04.693Z,16.05
2022-11-04T13:21:38.406Z,16.00
2022-11-04T13:24:21.315Z,15.94
2022-11-04T13:26:52.246Z,15.88
2022-11-04T13:29:21.885Z,15.83
2022-11-04T13:32:00.894Z,15.79
2022-11-04T13:34:47.367Z,15.72
2022-11-04T13:37:26.417Z,15.66
2022-11-04T13:40:24.449Z,15.59
2022-11-04T13:43:34.358Z,15.54
2022-11-04T13:46:03.457Z,15.44
2022-11-04T13:48:34.781Z,15.39
2022-11-04T13:51:08.880Z,15.34
2022-11-04T13:53:47.536Z,15.28
2022-11-04T13:56:39.533Z,15.23
2022-11-04T13:59:18.604Z,15.19
2022-11-04T14:01:47.478Z,15.14
2022-11-04T14:04:28.117Z,15.11
2022-11-04T14:07:04.111Z,15.06
2022-11-04T14:09:35.641Z,15.01
2022-11-04T14:12:18.892Z,14.97
2022-11-04T14:14:56.081Z,14.92
2022-11-04T14:17:33.484Z,14.87
2022-11-04T14:20:01.841Z,14.79
2022-11-04T14:22:44.332Z,14.71
2022-11-04T14:25:30.627Z,14.63
2022-11-04T14:28:11.376Z,14.55
2022-11-04T14:31:01.489Z,14.47
2022-11-04T14:33:53.815Z,14.38
2022-11-04T14:36:22.228Z,14.28
2022-11-04T14:39:12.374Z,14.18
2022-11-04T14:41:40.715Z,14.07
2022-11-04T14:44:23.929Z,13.96
2022-11-04T14:46:59.560Z,13.85
2022-11-04T14:49:43.895Z,13.77
2022-11-04T14:52:27.101Z,13.69
2022-11-04T14:55:30.093Z,13.62
2022-11-04T14:58:28.287Z,13.56
2022-11-04T15:01:01.460Z,13.51
2022-11-04T15:06:40.857Z,13.42
2022-11-04T15:09:27.636Z,13.35
2022-11-04T15:12:28.546Z,13.29
2022-11-04T15:14:58.243Z,13.22
2022-11-04T15:17:30.275Z,13.16
2022-11-04T15:20:01.604Z,13.11
2022-11-04T15:22:30.605Z,13.02
2022-11-04T15:25:06.126Z,12.95
2022-11-04T15:27:34.839Z,12.89
2022-11-04T15:30:05.573Z,12.85
2022-11-04T15:32:33.825Z,12.81
2022-11-04T15:35:02.628Z,12.73
2022-11-04T15:37:31.437Z,12.67
2022-11-04T15:40:00.097Z,12.63
2022-11-04T15:42:40.923Z,12.62
2022-11-04T15:45:27.950Z,12.60
2022-11-04T15:48:37.991Z,12.61
2022-11-04T15:51:25.872Z,12.61
2022-11-04T15:54:06.377Z,12.62
2022-11-04T15:56:41.802Z,12.63
2022-11-04T15:59:18.978Z,12.64
2022-11-04T16:01:49.513Z,12.65
2022-11-04T16:04:21.412Z,12.65
2022-11-04T16:07:05.273Z,12.66
2022-11-04T16:09:46.822Z,12.67
2022-11-04T16:12:27.599Z,12.67
2022-11-04T16:14:57.880Z,12.66
2022-11-04T16:17:28.468Z,12.65
2022-11-04T16:20:06.266Z,12.64
2022-11-04T16:22:40.804Z,12.62
2022-11-04T16:25:21.159Z,12.60
2022-11-04T16:27:50.942Z,12.56
2022-11-04T16:30:21.922Z,12.52
2022-11-04T16:32:55.128Z,12.47
2022-11-04T16:35:28.434Z,12.40
2022-11-04T16:37:56.846Z,12.35
2022-11-04T16:40:26.069Z,12.28
2022-11-04T16:42:54.605Z,12.22
2022-11-04T16:45:30.165Z,12.17
2022-11-04T16:47:58.957Z,12.10
2022-11-04T16:50:28.012Z,12.04
2022-11-04T16:52:56.355Z,11.99
2022-11-04T16:55:25.687Z,11.96
2022-11-04T16:58:04.975Z,11.93
2022-11-04T17:00:33.998Z,11.90
2022-11-04T17:03:13.449Z,11.85
2022-11-04T17:05:41.770Z,11.82
2022-11-04T17:08:12.379Z,11.81
2022-11-04T17:10:40.812Z,11.79
2022-11-04T17:13:09.365Z,11.77
2022-11-04T17:15:38.509Z,11.76
2022-11-04T17:18:06.829Z,11.75
2022-11-04T17:20:35.221Z,11.74
2022-11-04T17:23:03.581Z,11.73
2022-11-04T17:25:32.310Z,11.71
2022-11-04T17:28:00.646Z,11.70
2022-11-04T17:30:28.899Z,11.69
2022-11-04T17:32:57.308Z,11.69
2022-11-04T17:35:26.164Z,11.68
2022-11-04T17:37:55.180Z,11.68
2022-11-04T17:40:24.290Z,11.69
2022-11-04T17:43:12.573Z,11.69
2022-11-04T17:45:42.749Z,11.68
2022-11-04T17:48:11.603Z,11.67
2022-11-04T17:50:41.549Z,11.67
2022-11-04T17:53:10.161Z,11.65
2022-11-04T17:55:40.735Z,11.64
2022-11-04T17:58:09.093Z,11.63
2022-11-04T18:00:37.828Z,11.62
2022-11-04T18:03:06.975Z,11.61
2022-11-04T18:05:35.411Z,11.59
2022-11-04T18:08:03.949Z,11.58
2022-11-04T18:10:32.279Z,11.56
2022-11-04T18:13:00.564Z,11.54
2022-11-04T18:15:28.957Z,11.53
2022-11-04T18:17:57.445Z,11.53
2022-11-04T18:20:25.745Z,11.52
2022-11-04T18:22:54.051Z,11.52
2022-11-04T18:25:22.377Z,11.53
2022-11-04T18:27:50.665Z,11.54
2022-11-04T18:30:19.072Z,11.55
2022-11-04T18:32:47.417Z,11.57
2022-11-04T18:35:15.687Z,11.58
2022-11-04T18:37:47.292Z,11.59
2022-11-04T18:40:17.036Z,11.60
2022-11-04T18:42:45.355Z,11.60
2022-11-04T18:45:13.688Z,11.60
2022-11-04T18:47:42.289Z,11.61
2022-11-04T18:50:10.618Z,11.61
2022-11-04T18:52:38.960Z,11.61
2022-11-04T18:55:08.305Z,11.59
2022-11-04T18:57:36.568Z,11.57
2022-11-04T19:00:05.736Z,11.54
2022-11-04T19:02:34.208Z,11.53
2022-11-04T19:05:02.639Z,11.51
2022-11-04T19:07:30.956Z,11.50
2022-11-04T19:09:59.402Z,11.49
2022-11-04T19:12:46.179Z,11.49
2022-11-04T19:15:14.712Z,11.50
2022-11-04T19:17:43.087Z,11.49
2022-11-04T19:20:13.050Z,11.49
2022-11-04T19:22:41.733Z,11.49
2022-11-04T19:25:10.910Z,11.48
2022-11-04T19:27:39.821Z,11.47
2022-11-04T19:30:08.740Z,11.46
2022-11-04T19:32:37.245Z,11.45
2022-11-04T19:35:05.929Z,11.44
2022-11-04T19:37:34.351Z,11.43
2022-11-04T19:40:04.949Z,11.43
2022-11-04T19:42:52.315Z,11.42
2022-11-04T19:45:20.753Z,11.41
2022-11-04T19:47:49.067Z,11.40
2022-11-04T19:50:18.423Z,11.39
2022-11-04T19:52:46.736Z,11.39
2022-11-04T19:55:15.584Z,11.39
2022-11-04T19:57:43.872Z,11.38
2022-11-04T20:00:12.572Z,11.36
2022-11-04T20:02:40.984Z,11.36
2022-11-04T20:05:09.635Z,11.36
2022-11-04T20:07:39.664Z,11.35
2022-11-04T20:10:09.458Z,11.33
2022-11-04T20:12:57.196Z,11.30
2022-11-04T20:15:26.497Z,11.27
2022-11-04T20:17:54.874Z,11.24
2022-11-04T20:20:23.263Z,11.23
2022-11-04T20:22:51.509Z,11.20
2022-11-04T20:25:19.944Z,11.18
2022-11-04T20:27:48.522Z,11.14
2022-11-04T20:30:16.794Z,11.12
2022-11-04T20:32:45.480Z,11.10
2022-11-04T20:35:14.538Z,11.10
2022-11-04T20:37:43.229Z,11.10
2022-11-04T20:40:12.267Z,11.10
2022-11-04T20:42:47.904Z,11.08
2022-11-04T20:45:19.292Z,11.08
2022-11-04T20:47:48.094Z,11.09
2022-11-04T20:50:16.480Z,11.08
2022-11-04T20:52:44.755Z,11.07
2022-11-04T20:55:13.148Z,11.06
2022-11-04T20:57:41.569Z,11.05
2022-11-04T21:00:10.457Z,11.04
2022-11-04T21:02:38.799Z,11.03
2022-11-04T21:05:07.490Z,11.03
2022-11-04T21:07:37.074Z,11.06
2022-11-04T21:10:05.749Z,11.10
2022-11-04T21:12:34.613Z,11.12
2022-11-04T21:15:03.498Z,11.14
2022-11-04T21:17:36.089Z,11.16
2022-11-04T21:20:08.584Z,11.16
2022-11-04T21:22:36.791Z,11.17
2022-11-04T21:25:05.397Z,11.21
2022-11-04T21:27:33.719Z,11.22
2022-11-04T21:30:01.997Z,11.22
2022-11-04T21:32:31.375Z,11.23
2022-11-04T21:34:59.700Z,11.23
2022-11-04T21:37:28.452Z,11.21
2022-11-04T21:39:56.832Z,11.20
2022-11-04T21:42:25.147Z,11.19
2022-11-04T21:44:53.423Z,11.19
2022-11-04T21:47:21.686Z,11.18
2022-11-04T21:49:50.739Z,11.16
2022-11-04T21:52:18.996Z,11.15
2022-11-04T21:54:47.588Z,11.14
2022-11-04T21:57:15.897Z,11.13
2022-11-04T21:59:44.175Z,11.14
2022-11-04T22:02:12.549Z,11.13
2022-11-04T22:04:40.939Z,11.13
2022-11-04T22:07:09.224Z,11.13
2022-11-04T22:09:37.553Z,11.12
2022-11-04T22:12:05.966Z,11.11
2022-11-04T22:14:34.225Z,11.09
2022-11-04T22:17:02.494Z,11.07
2022-11-04T22:19:30.967Z,11.06
2022-11-04T22:21:59.204Z,11.04
2022-11-04T22:24:27.437Z,11.01
2022-11-04T22:26:55.708Z,11.00
2022-11-04T22:29:23.953Z,10.97
2022-11-04T22:31:52.197Z,10.95
2022-11-04T22:34:20.528Z,10.91
2022-11-04T22:36:48.809Z,10.86
2022-11-04T22:39:17.278Z,10.81
2022-11-04T22:41:46.580Z,10.78
2022-11-04T22:44:15.248Z,10.75
2022-11-04T22:46:43.735Z,10.72
2022-11-04T22:49:13.158Z,10.68
2022-11-04T22:51:41.482Z,10.66
2022-11-04T22:54:10.429Z,10.65
2022-11-04T22:56:38.741Z,10.63
2022-11-04T22:59:07.923Z,10.61
2022-11-04T23:01:36.862Z,10.60
2022-11-04T23:04:05.730Z,10.59
2022-11-04T23:06:34.012Z,10.57
2022-11-04T23:09:02.353Z,10.56
2022-11-04T23:11:50.771Z,10.54
2022-11-04T23:14:40.202Z,10.53
2022-11-04T23:17:34.816Z,10.50
2022-11-04T23:20:07.220Z,10.47
2022-11-04T23:22:54.296Z,10.46
2022-11-04T23:25:23.319Z,10.44
2022-11-04T23:28:12.852Z,10.42
2022-11-04T23:30:43.552Z,10.38
2022-11-04T23:33:14.770Z,10.34
2022-11-04T23:36:05.191Z,10.32
2022-11-04T23:38:35.566Z,10.29
2022-11-04T23:41:26.015Z,10.28
2022-11-04T23:43:54.292Z,10.26
2022-11-04T23:46:43.380Z,10.25
2022-11-04T23:49:50.685Z,10.23
2022-11-04T23:52:37.736Z,10.21
2022-11-04T23:55:27.777Z,10.20
2022-11-04T23:58:14.445Z,10.19
